Aérodrome :
LOGIN :

S'inscrire | Disclaimer

   EN    FR    IT 

 










Légende :    VFR   VFR Marginal   IFR   IFR Intensif   IFR Très Intensif
Visi : 
Plafond : 
>= 8 km
>= 3000ft
5 à 8 km
1000 à 3000 ft
1500m à 5 km
500 à 1000 ft
800 à 1500m
200 à 500 ft
< 800m
< 200 ft
Symboles :   Orages  Brouillard  Fortes neiges  Fortes précipitations  Vent > 20 kt
SIGMETs :   Divers  Orages  Givrage  Turbulence  Onde Orograph.  Cendres Volcan.






- Altitude de l'aérodrome : 297 ft
- Code IATA : BBU


LRBS - Bucarest - Baneasa Aurel Vlaicu

DERNIER METAR :
  • 251800Z 00000KT CAVOK 02/M04 Q1021 NOSIG

METARs EXPIRÉS :
  • 251730Z VRB01KT CAVOK 02/M04 Q1021 NOSIG
  • 251700Z VRB01KT CAVOK 03/M03 Q1021 NOSIG
  • 251630Z VRB01KT CAVOK 05/M03 Q1021 NOSIG
  • 251600Z 00000KT CAVOK 06/M03 Q1021 NOSIG
  • 251530Z 00000KT CAVOK 06/M03 Q1021 NOSIG

TAF TAF LRBS
Valide du 25 à 18h jusqu'au 26 à 18h UTC


251700Z 2518/2618 VRB04KT CAVOK
TEMPO 2600/2607 3000 BR



MET'MAP, la Météo Aéronautique d'un coup d'oeil ! - Copyright ORBIFLY Décembre 2007 - Disclaimer

ORBIFLY MET'MAP TEAM :

Programmation & Développement : Alexandra Zaïnal
Sur une idée originale de : Baudouin d'Aumeries
Assistance à la programmation : Marc-Olivier Méhu
Soutien technique & logistique : Manuel Goepfert

Contact : metmap@orbifly.com




SOURCES & CREDITS :

   NOAA